sensor_id;sensor_type;location;lat;lon;timestamp;pressure;altitude;pressure_sealevel;temperature;humidity
26563;BME280;14217;50.986;5.826;2022-08-05T00:04:55;100803.25;;;29.74;41.24
26563;BME280;14217;50.986;5.826;2022-08-05T00:09:57;100788.03;;;29.73;41.27
26563;BME280;14217;50.986;5.826;2022-08-05T00:14:59;100793.84;;;29.69;41.34
26563;BME280;14217;50.986;5.826;2022-08-05T00:20:21;100796.56;;;29.78;41.13
26563;BME280;14217;50.986;5.826;2022-08-05T00:25:29;100800.09;;;29.69;41.26
26563;BME280;14217;50.986;5.826;2022-08-05T00:30:46;100795.44;;;29.71;41.43
26563;BME280;14217;50.986;5.826;2022-08-05T00:35:54;100798.13;;;29.71;41.39
26563;BME280;14217;50.986;5.826;2022-08-05T00:41:30;100797.84;;;29.74;41.18
26563;BME280;14217;50.986;5.826;2022-08-05T00:46:52;100786.16;;;29.64;41.29
26563;BME280;14217;50.986;5.826;2022-08-05T00:52:06;100777.06;;;29.65;41.30
26563;BME280;14217;50.986;5.826;2022-08-05T00:57:08;100796.69;;;29.67;41.36
26563;BME280;14217;50.986;5.826;2022-08-05T01:02:10;100796.28;;;29.72;41.22
26563;BME280;14217;50.986;5.826;2022-08-05T01:07:12;100802.09;;;29.67;41.04
26563;BME280;14217;50.986;5.826;2022-08-05T01:12:19;100845.75;;;29.72;41.23
26563;BME280;14217;50.986;5.826;2022-08-05T01:18:04;100862.94;;;29.71;41.27
26563;BME280;14217;50.986;5.826;2022-08-05T01:23:17;100899.97;;;29.59;41.33
26563;BME280;14217;50.986;5.826;2022-08-05T01:28:44;100919.78;;;29.70;41.34
26563;BME280;14217;50.986;5.826;2022-08-05T01:33:52;100948.31;;;29.63;41.48
26563;BME280;14217;50.986;5.826;2022-08-05T01:38:55;100941.91;;;29.64;41.59
26563;BME280;14217;50.986;5.826;2022-08-05T01:44:02;100949.03;;;29.65;41.61
26563;BME280;14217;50.986;5.826;2022-08-05T01:49:13;100939.94;;;29.66;41.69
26563;BME280;14217;50.986;5.826;2022-08-05T01:54:31;100905.25;;;29.61;41.56
26563;BME280;14217;50.986;5.826;2022-08-05T01:59:47;100853.25;;;29.69;41.32
26563;BME280;14217;50.986;5.826;2022-08-05T02:04:51;100814.16;;;29.63;41.49
26563;BME280;14217;50.986;5.826;2022-08-05T02:09:55;100760.03;;;29.55;41.82
26563;BME280;14217;50.986;5.826;2022-08-05T02:15:33;100734.31;;;29.61;41.59
26563;BME280;14217;50.986;5.826;2022-08-05T02:20:59;100738.56;;;29.63;41.27
26563;BME280;14217;50.986;5.826;2022-08-05T02:26:08;100792.00;;;29.69;41.18
26563;BME280;14217;50.986;5.826;2022-08-05T02:31:24;100844.56;;;29.55;41.49
26563;BME280;14217;50.986;5.826;2022-08-05T02:36:30;100839.75;;;29.59;41.66
26563;BME280;14217;50.986;5.826;2022-08-05T02:41:33;100837.63;;;29.63;41.50
26563;BME280;14217;50.986;5.826;2022-08-05T02:46:56;100852.38;;;29.68;41.51
26563;BME280;14217;50.986;5.826;2022-08-05T02:52:02;100865.03;;;29.68;41.59
26563;BME280;14217;50.986;5.826;2022-08-05T02:57:07;100871.56;;;29.65;41.63
26563;BME280;14217;50.986;5.826;2022-08-05T03:02:34;100879.53;;;29.67;41.48
26563;BME280;14217;50.986;5.826;2022-08-05T03:07:38;100876.84;;;29.67;41.54
26563;BME280;14217;50.986;5.826;2022-08-05T03:13:00;100856.41;;;29.74;41.46
26563;BME280;14217;50.986;5.826;2022-08-05T03:18:01;100844.72;;;29.64;41.55
26563;BME280;14217;50.986;5.826;2022-08-05T03:23:04;100842.75;;;29.56;41.90
26563;BME280;14217;50.986;5.826;2022-08-05T03:28:07;100828.09;;;29.58;41.61
26563;BME280;14217;50.986;5.826;2022-08-05T03:33:09;100843.88;;;29.63;41.71
26563;BME280;14217;50.986;5.826;2022-08-05T03:38:13;100851.56;;;29.58;41.69
26563;BME280;14217;50.986;5.826;2022-08-05T03:43:16;100845.97;;;29.59;41.74
26563;BME280;14217;50.986;5.826;2022-08-05T03:48:38;100816.44;;;29.58;41.76
26563;BME280;14217;50.986;5.826;2022-08-05T03:53:51;100782.34;;;29.57;41.54
26563;BME280;14217;50.986;5.826;2022-08-05T03:59:23;100786.44;;;29.61;41.44
26563;BME280;14217;50.986;5.826;2022-08-05T04:04:30;100783.75;;;29.61;41.67
26563;BME280;14217;50.986;5.826;2022-08-05T04:09:33;100773.97;;;29.60;41.71
26563;BME280;14217;50.986;5.826;2022-08-05T04:14:37;100774.38;;;29.55;41.81
26563;BME280;14217;50.986;5.826;2022-08-05T04:19:44;100785.75;;;29.59;41.61
26563;BME280;14217;50.986;5.826;2022-08-05T04:24:54;100802.34;;;29.64;41.54
26563;BME280;14217;50.986;5.826;2022-08-05T04:29:56;100787.88;;;29.55;41.87
26563;BME280;14217;50.986;5.826;2022-08-05T04:35:04;100812.03;;;29.57;41.60
26563;BME280;14217;50.986;5.826;2022-08-05T04:40:17;100828.53;;;29.54;41.69
26563;BME280;14217;50.986;5.826;2022-08-05T04:45:20;100841.47;;;29.60;41.78
26563;BME280;14217;50.986;5.826;2022-08-05T04:50:40;100845.28;;;29.57;41.71
26563;BME280;14217;50.986;5.826;2022-08-05T04:56:03;100846.16;;;29.58;41.72
26563;BME280;14217;50.986;5.826;2022-08-05T05:01:25;100848.56;;;29.61;41.84
26563;BME280;14217;50.986;5.826;2022-08-05T05:06:47;100848.97;;;29.56;41.73
26563;BME280;14217;50.986;5.826;2022-08-05T05:11:58;100831.91;;;29.66;41.75
26563;BME280;14217;50.986;5.826;2022-08-05T05:17:03;100830.78;;;29.58;41.72
26563;BME280;14217;50.986;5.826;2022-08-05T05:22:10;100832.47;;;29.59;41.82
26563;BME280;14217;50.986;5.826;2022-08-05T05:27:35;100853.09;;;29.61;41.82
26563;BME280;14217;50.986;5.826;2022-08-05T05:32:46;100844.00;;;29.52;41.75
26563;BME280;14217;50.986;5.826;2022-08-05T05:37:50;100845.69;;;29.53;41.90
26563;BME280;14217;50.986;5.826;2022-08-05T05:43:00;100852.50;;;29.47;41.97
26563;BME280;14217;50.986;5.826;2022-08-05T05:48:02;100855.78;;;29.51;41.75
26563;BME280;14217;50.986;5.826;2022-08-05T05:53:09;100863.16;;;29.49;41.71
26563;BME280;14217;50.986;5.826;2022-08-05T05:58:23;100874.41;;;29.54;41.72
26563;BME280;14217;50.986;5.826;2022-08-05T06:03:32;100881.09;;;29.50;41.46
26563;BME280;14217;50.986;5.826;2022-08-05T06:08:54;100890.88;;;29.51;41.37
26563;BME280;14217;50.986;5.826;2022-08-05T06:13:56;100880.22;;;29.49;41.53
26563;BME280;14217;50.986;5.826;2022-08-05T06:19:00;100897.72;;;29.55;41.25
26563;BME280;14217;50.986;5.826;2022-08-05T06:24:07;100905.38;;;29.50;41.15
26563;BME280;14217;50.986;5.826;2022-08-05T06:29:12;100918.16;;;29.48;41.01
26563;BME280;14217;50.986;5.826;2022-08-05T06:34:34;100927.38;;;29.45;40.85
26563;BME280;14217;50.986;5.826;2022-08-05T06:39:38;100928.38;;;29.44;40.81
26563;BME280;14217;50.986;5.826;2022-08-05T06:44:41;100934.44;;;29.36;40.79
26563;BME280;14217;50.986;5.826;2022-08-05T06:49:49;100946.44;;;29.44;40.55
26563;BME280;14217;50.986;5.826;2022-08-05T06:55:02;100950.81;;;29.45;40.49
26563;BME280;14217;50.986;5.826;2022-08-05T07:00:05;100966.03;;;29.46;40.29
26563;BME280;14217;50.986;5.826;2022-08-05T07:05:10;100971.13;;;29.39;40.45
26563;BME280;14217;50.986;5.826;2022-08-05T07:10:19;100980.22;;;29.38;40.28
26563;BME280;14217;50.986;5.826;2022-08-05T07:15:30;100983.81;;;29.48;40.13
26563;BME280;14217;50.986;5.826;2022-08-05T07:21:05;100994.16;;;29.43;39.84
26563;BME280;14217;50.986;5.826;2022-08-05T07:26:09;101005.81;;;29.44;40.21
26563;BME280;14217;50.986;5.826;2022-08-05T07:31:14;101007.25;;;29.48;40.90
26563;BME280;14217;50.986;5.826;2022-08-05T07:36:16;101026.94;;;29.38;40.69
26563;BME280;14217;50.986;5.826;2022-08-05T07:41:23;101032.13;;;28.99;40.88
26563;BME280;14217;50.986;5.826;2022-08-05T07:46:46;101040.41;;;28.87;40.20
26563;BME280;14217;50.986;5.826;2022-08-05T07:51:50;101047.78;;;28.85;41.18
26563;BME280;14217;50.986;5.826;2022-08-05T07:56:55;101045.47;;;28.80;41.03
26563;BME280;14217;50.986;5.826;2022-08-05T08:02:15;101051.00;;;28.99;40.49
26563;BME280;14217;50.986;5.826;2022-08-05T08:07:19;101061.91;;;28.98;40.77
26563;BME280;14217;50.986;5.826;2022-08-05T08:12:24;101060.78;;;29.01;40.58
26563;BME280;14217;50.986;5.826;2022-08-05T08:17:37;101069.34;;;29.06;40.65
26563;BME280;14217;50.986;5.826;2022-08-05T08:22:54;101072.78;;;29.08;40.26
26563;BME280;14217;50.986;5.826;2022-08-05T08:27:57;101067.00;;;29.12;40.11
26563;BME280;14217;50.986;5.826;2022-08-05T08:33:00;101078.66;;;29.13;40.02
26563;BME280;14217;50.986;5.826;2022-08-05T08:38:08;101084.38;;;29.19;39.87
26563;BME280;14217;50.986;5.826;2022-08-05T08:43:18;101089.91;;;29.18;40.06
26563;BME280;14217;50.986;5.826;2022-08-05T08:48:40;101090.25;;;29.25;40.22
26563;BME280;14217;50.986;5.826;2022-08-05T08:54:04;101105.63;;;29.13;40.31
26563;BME280;14217;50.986;5.826;2022-08-05T08:59:06;101110.78;;;29.05;40.45
26563;BME280;14217;50.986;5.826;2022-08-05T09:04:20;101124.47;;;28.92;40.43
26563;BME280;14217;50.986;5.826;2022-08-05T09:09:35;101127.16;;;28.92;40.52
26563;BME280;14217;50.986;5.826;2022-08-05T09:14:39;101139.16;;;28.99;40.28
26563;BME280;14217;50.986;5.826;2022-08-05T09:20:00;101137.91;;;29.14;40.15
26563;BME280;14217;50.986;5.826;2022-08-05T09:25:06;101142.03;;;29.18;40.06
26563;BME280;14217;50.986;5.826;2022-08-05T09:30:25;101155.94;;;29.14;40.56
26563;BME280;14217;50.986;5.826;2022-08-05T09:35:27;101165.53;;;28.95;41.15
26563;BME280;14217;50.986;5.826;2022-08-05T09:40:36;101168.06;;;29.08;40.59
26563;BME280;14217;50.986;5.826;2022-08-05T09:45:52;101166.97;;;29.11;40.98
26563;BME280;14217;50.986;5.826;2022-08-05T09:51:08;101162.63;;;29.19;40.47
26563;BME280;14217;50.986;5.826;2022-08-05T09:56:30;101171.84;;;29.17;41.01
26563;BME280;14217;50.986;5.826;2022-08-05T10:01:35;101174.16;;;28.89;40.67
26563;BME280;14217;50.986;5.826;2022-08-05T10:06:56;101176.06;;;28.98;40.63
26563;BME280;14217;50.986;5.826;2022-08-05T10:12:09;101178.63;;;28.68;40.80
26563;BME280;14217;50.986;5.826;2022-08-05T10:17:31;101185.94;;;28.77;40.44
26563;BME280;14217;50.986;5.826;2022-08-05T10:22:42;101182.78;;;28.72;40.27
26563;BME280;14217;50.986;5.826;2022-08-05T10:27:51;101191.88;;;28.60;40.63
26563;BME280;14217;50.986;5.826;2022-08-05T10:33:14;101189.28;;;28.69;40.12
26563;BME280;14217;50.986;5.826;2022-08-05T10:38:21;101189.28;;;28.69;39.28
26563;BME280;14217;50.986;5.826;2022-08-05T10:48:40;101194.66;;;28.69;40.02
26563;BME280;14217;50.986;5.826;2022-08-05T10:53:59;101192.38;;;28.53;40.30
26563;BME280;14217;50.986;5.826;2022-08-05T11:04:48;101207.84;;;28.51;39.65
26563;BME280;14217;50.986;5.826;2022-08-05T11:09:55;101215.31;;;28.59;40.16
26563;BME280;14217;50.986;5.826;2022-08-05T11:15:28;101222.53;;;28.36;41.58
26563;BME280;14217;50.986;5.826;2022-08-05T11:20:53;101215.91;;;28.40;39.98
26563;BME280;14217;50.986;5.826;2022-08-05T11:26:08;101202.56;;;28.50;39.78
26563;BME280;14217;50.986;5.826;2022-08-05T11:31:16;101213.06;;;28.42;40.02
26563;BME280;14217;50.986;5.826;2022-08-05T11:36:46;101210.25;;;28.43;39.75
26563;BME280;14217;50.986;5.826;2022-08-05T11:41:55;101223.13;;;28.39;38.97
26563;BME280;14217;50.986;5.826;2022-08-05T11:47:04;101224.38;;;28.13;40.11
26563;BME280;14217;50.986;5.826;2022-08-05T11:52:27;101209.69;;;28.51;38.81
26563;BME280;14217;50.986;5.826;2022-08-05T11:57:31;101206.22;;;28.37;40.51
26563;BME280;14217;50.986;5.826;2022-08-05T12:02:53;101210.16;;;28.56;39.39
26563;BME280;14217;50.986;5.826;2022-08-05T12:07:57;101217.56;;;28.86;39.06
26563;BME280;14217;50.986;5.826;2022-08-05T12:13:15;101217.66;;;28.96;38.89
26563;BME280;14217;50.986;5.826;2022-08-05T12:18:37;101227.59;;;28.95;38.85
26563;BME280;14217;50.986;5.826;2022-08-05T12:23:53;101233.19;;;29.04;38.41
26563;BME280;14217;50.986;5.826;2022-08-05T12:28:55;101244.13;;;29.02;38.63
26563;BME280;14217;50.986;5.826;2022-08-05T12:33:57;101254.28;;;28.98;38.40
26563;BME280;14217;50.986;5.826;2022-08-05T12:39:03;101265.16;;;28.76;37.95
26563;BME280;14217;50.986;5.826;2022-08-05T12:44:09;101272.16;;;28.67;37.24
26563;BME280;14217;50.986;5.826;2022-08-05T12:49:14;101278.16;;;28.48;36.63
26563;BME280;14217;50.986;5.826;2022-08-05T12:54:25;101285.09;;;28.39;36.60
26563;BME280;14217;50.986;5.826;2022-08-05T12:59:31;101295.88;;;28.39;36.83
26563;BME280;14217;50.986;5.826;2022-08-05T13:04:54;101303.84;;;28.41;36.42
26563;BME280;14217;50.986;5.826;2022-08-05T13:09:56;101303.03;;;28.63;36.01
26563;BME280;14217;50.986;5.826;2022-08-05T13:15:02;101293.44;;;28.82;35.73
26563;BME280;14217;50.986;5.826;2022-08-05T13:20:13;101293.69;;;28.90;36.12
26563;BME280;14217;50.986;5.826;2022-08-05T13:25:22;101293.19;;;28.39;35.69
26563;BME280;14217;50.986;5.826;2022-08-05T13:30:43;101290.13;;;28.22;35.42
26563;BME280;14217;50.986;5.826;2022-08-05T13:35:48;101291.34;;;28.29;34.88
26563;BME280;14217;50.986;5.826;2022-08-05T13:40:52;101301.88;;;28.21;34.40
26563;BME280;14217;50.986;5.826;2022-08-05T13:45:54;101303.59;;;28.10;33.80
26563;BME280;14217;50.986;5.826;2022-08-05T13:51:04;101310.22;;;28.17;32.55
26563;BME280;14217;50.986;5.826;2022-08-05T13:56:08;101314.66;;;28.30;32.62
26563;BME280;14217;50.986;5.826;2022-08-05T14:01:18;101320.03;;;28.41;32.02
26563;BME280;14217;50.986;5.826;2022-08-05T14:06:36;101313.91;;;28.28;32.23
26563;BME280;14217;50.986;5.826;2022-08-05T14:11:38;101324.06;;;28.24;32.01
26563;BME280;14217;50.986;5.826;2022-08-05T14:17:03;101336.38;;;28.62;31.73
26563;BME280;14217;50.986;5.826;2022-08-05T14:22:17;101340.53;;;28.89;32.50
26563;BME280;14217;50.986;5.826;2022-08-05T14:27:19;101342.72;;;28.84;32.76
26563;BME280;14217;50.986;5.826;2022-08-05T14:32:21;101358.69;;;28.87;32.96
26563;BME280;14217;50.986;5.826;2022-08-05T14:37:27;101355.34;;;29.06;32.54
26563;BME280;14217;50.986;5.826;2022-08-05T14:42:48;101359.16;;;29.03;31.76
26563;BME280;14217;50.986;5.826;2022-08-05T14:47:50;101353.38;;;29.08;32.10
26563;BME280;14217;50.986;5.826;2022-08-05T14:53:08;101353.38;;;29.19;31.99
26563;BME280;14217;50.986;5.826;2022-08-05T14:58:11;101371.53;;;29.17;32.15
26563;BME280;14217;50.986;5.826;2022-08-05T15:03:14;101363.16;;;29.09;31.25
26563;BME280;14217;50.986;5.826;2022-08-05T15:08:16;101366.63;;;29.22;31.11
26563;BME280;14217;50.986;5.826;2022-08-05T15:13:41;101370.78;;;29.04;31.33
26563;BME280;14217;50.986;5.826;2022-08-05T15:18:50;101369.22;;;29.12;31.02
26563;BME280;14217;50.986;5.826;2022-08-05T15:23:52;101363.66;;;29.25;30.85
26563;BME280;14217;50.986;5.826;2022-08-05T15:28:55;101379.41;;;29.20;29.81
26563;BME280;14217;50.986;5.826;2022-08-05T15:33:58;101384.19;;;29.16;30.31
26563;BME280;14217;50.986;5.826;2022-08-05T15:39:20;101382.44;;;29.15;30.02
26563;BME280;14217;50.986;5.826;2022-08-05T15:44:43;101386.03;;;29.16;29.77
26563;BME280;14217;50.986;5.826;2022-08-05T15:49:47;101380.84;;;29.02;29.33
26563;BME280;14217;50.986;5.826;2022-08-05T15:54:59;101384.03;;;29.07;30.47
26563;BME280;14217;50.986;5.826;2022-08-05T16:00:06;101385.13;;;29.04;29.21
26563;BME280;14217;50.986;5.826;2022-08-05T16:05:08;101389.31;;;29.08;29.37
26563;BME280;14217;50.986;5.826;2022-08-05T16:10:11;101387.84;;;28.70;28.57
26563;BME280;14217;50.986;5.826;2022-08-05T16:15:15;101395.09;;;28.81;29.16
26563;BME280;14217;50.986;5.826;2022-08-05T16:20:19;101399.25;;;28.74;28.92
26563;BME280;14217;50.986;5.826;2022-08-05T16:25:21;101404.03;;;28.82;28.65
26563;BME280;14217;50.986;5.826;2022-08-05T16:30:33;101405.13;;;28.79;28.51
26563;BME280;14217;50.986;5.826;2022-08-05T16:35:36;101415.06;;;28.78;28.50
26563;BME280;14217;50.986;5.826;2022-08-05T16:40:46;101417.13;;;28.64;28.30
26563;BME280;14217;50.986;5.826;2022-08-05T16:45:56;101421.78;;;28.73;29.33
26563;BME280;14217;50.986;5.826;2022-08-05T16:51:08;101434.16;;;28.53;28.92
26563;BME280;14217;50.986;5.826;2022-08-05T16:56:13;101433.09;;;28.89;28.73
26563;BME280;14217;50.986;5.826;2022-08-05T17:01:16;101443.09;;;28.65;28.48
26563;BME280;14217;50.986;5.826;2022-08-05T17:06:19;101457.00;;;28.94;29.04
26563;BME280;14217;50.986;5.826;2022-08-05T17:11:25;101454.88;;;28.64;27.49
26563;BME280;14217;50.986;5.826;2022-08-05T17:16:27;101465.31;;;28.79;27.52
26563;BME280;14217;50.986;5.826;2022-08-05T17:21:33;101468.97;;;28.56;28.03
26563;BME280;14217;50.986;5.826;2022-08-05T17:26:37;101479.13;;;28.52;28.33
26563;BME280;14217;50.986;5.826;2022-08-05T17:31:41;101485.81;;;28.82;28.33
26563;BME280;14217;50.986;5.826;2022-08-05T17:36:59;101494.88;;;28.81;29.14
26563;BME280;14217;50.986;5.826;2022-08-05T17:42:01;101497.69;;;28.79;29.25
26563;BME280;14217;50.986;5.826;2022-08-05T17:47:20;101506.59;;;28.57;29.32
26563;BME280;14217;50.986;5.826;2022-08-05T17:52:24;101518.19;;;28.47;29.13
26563;BME280;14217;50.986;5.826;2022-08-05T17:57:27;101514.06;;;28.54;29.13
26563;BME280;14217;50.986;5.826;2022-08-05T18:02:29;101522.72;;;28.46;29.51
26563;BME280;14217;50.986;5.826;2022-08-05T18:07:32;101533.66;;;28.56;28.80
26563;BME280;14217;50.986;5.826;2022-08-05T18:12:42;101540.50;;;28.49;29.22
26563;BME280;14217;50.986;5.826;2022-08-05T18:17:47;101552.44;;;28.57;29.23
26563;BME280;14217;50.986;5.826;2022-08-05T18:23:04;101563.00;;;28.48;29.01
26563;BME280;14217;50.986;5.826;2022-08-05T18:28:13;101582.69;;;28.37;29.39
26563;BME280;14217;50.986;5.826;2022-08-05T18:33:18;101584.41;;;28.51;29.24
26563;BME280;14217;50.986;5.826;2022-08-05T18:38:23;101598.94;;;28.48;29.46
26563;BME280;14217;50.986;5.826;2022-08-05T18:43:26;101603.91;;;28.42;29.71
26563;BME280;14217;50.986;5.826;2022-08-05T18:48:32;101609.25;;;28.30;30.21
26563;BME280;14217;50.986;5.826;2022-08-05T18:53:34;101609.66;;;28.37;29.95
26563;BME280;14217;50.986;5.826;2022-08-05T18:58:50;101621.78;;;28.55;29.97
26563;BME280;14217;50.986;5.826;2022-08-05T19:04:01;101625.72;;;28.63;30.00
26563;BME280;14217;50.986;5.826;2022-08-05T19:09:06;101635.19;;;28.68;30.13
26563;BME280;14217;50.986;5.826;2022-08-05T19:14:08;101644.16;;;28.69;30.14
26563;BME280;14217;50.986;5.826;2022-08-05T19:19:30;101658.72;;;28.66;30.20
26563;BME280;14217;50.986;5.826;2022-08-05T19:24:32;101674.88;;;28.42;30.65
26563;BME280;14217;50.986;5.826;2022-08-05T19:29:35;101681.00;;;28.44;30.53
26563;BME280;14217;50.986;5.826;2022-08-05T19:34:39;101683.47;;;28.47;30.53
26563;BME280;14217;50.986;5.826;2022-08-05T19:39:56;101684.47;;;28.46;30.73
26563;BME280;14217;50.986;5.826;2022-08-05T19:44:59;101699.28;;;28.65;30.56
26563;BME280;14217;50.986;5.826;2022-08-05T19:50:02;101704.00;;;28.74;30.21
26563;BME280;14217;50.986;5.826;2022-08-05T19:55:06;101703.00;;;28.75;30.35
26563;BME280;14217;50.986;5.826;2022-08-05T20:00:28;101713.31;;;28.70;30.63
26563;BME280;14217;50.986;5.826;2022-08-05T20:05:30;101715.47;;;28.65;30.39
26563;BME280;14217;50.986;5.826;2022-08-05T20:10:51;101730.88;;;28.63;30.50
26563;BME280;14217;50.986;5.826;2022-08-05T20:15:54;101736.94;;;28.66;30.56
26563;BME280;14217;50.986;5.826;2022-08-05T20:20:58;101742.56;;;28.63;30.16
26563;BME280;14217;50.986;5.826;2022-08-05T20:26:01;101753.22;;;28.65;30.16
26563;BME280;14217;50.986;5.826;2022-08-05T20:31:03;101747.06;;;28.63;30.01
26563;BME280;14217;50.986;5.826;2022-08-05T20:36:05;101760.03;;;28.57;30.56
26563;BME280;14217;50.986;5.826;2022-08-05T20:41:10;101754.94;;;28.66;30.28
26563;BME280;14217;50.986;5.826;2022-08-05T20:46:24;101772.34;;;28.62;30.83
26563;BME280;14217;50.986;5.826;2022-08-05T20:51:26;101771.34;;;28.63;31.86
26563;BME280;14217;50.986;5.826;2022-08-05T20:56:28;101773.84;;;28.66;31.55
26563;BME280;14217;50.986;5.826;2022-08-05T21:01:41;101781.38;;;28.61;32.16
26563;BME280;14217;50.986;5.826;2022-08-05T21:06:45;101789.47;;;28.61;31.85
26563;BME280;14217;50.986;5.826;2022-08-05T21:11:47;101786.91;;;28.59;31.96
26563;BME280;14217;50.986;5.826;2022-08-05T21:17:09;101789.91;;;28.54;31.97
26563;BME280;14217;50.986;5.826;2022-08-05T21:22:12;101791.41;;;28.46;31.59
26563;BME280;14217;50.986;5.826;2022-08-05T21:27:15;101796.94;;;28.44;31.50
26563;BME280;14217;50.986;5.826;2022-08-05T21:32:17;101795.94;;;28.45;31.31
26563;BME280;14217;50.986;5.826;2022-08-05T21:37:27;101806.97;;;28.42;31.09
26563;BME280;14217;50.986;5.826;2022-08-05T21:42:29;101817.00;;;28.40;31.26
26563;BME280;14217;50.986;5.826;2022-08-05T21:47:45;101817.75;;;28.42;31.24
26563;BME280;14217;50.986;5.826;2022-08-05T21:52:57;101816.75;;;28.43;31.25
26563;BME280;14217;50.986;5.826;2022-08-05T21:58:08;101820.66;;;28.39;31.27
26563;BME280;14217;50.986;5.826;2022-08-05T22:03:12;101818.69;;;28.41;31.04
26563;BME280;14217;50.986;5.826;2022-08-05T22:08:16;101835.97;;;28.38;31.03
26563;BME280;14217;50.986;5.826;2022-08-05T22:13:24;101842.97;;;28.41;31.17
26563;BME280;14217;50.986;5.826;2022-08-05T22:18:47;101835.22;;;28.36;30.99
26563;BME280;14217;50.986;5.826;2022-08-05T22:23:49;101850.53;;;28.36;31.16
26563;BME280;14217;50.986;5.826;2022-08-05T22:29:30;101854.19;;;28.35;31.01
26563;BME280;14217;50.986;5.826;2022-08-05T22:34:33;101855.03;;;28.35;30.96
26563;BME280;14217;50.986;5.826;2022-08-05T22:39:36;101854.28;;;28.33;30.97
26563;BME280;14217;50.986;5.826;2022-08-05T22:44:40;101860.66;;;28.32;31.00
26563;BME280;14217;50.986;5.826;2022-08-05T22:49:58;101875.97;;;28.32;30.85
26563;BME280;14217;50.986;5.826;2022-08-05T22:55:21;101882.22;;;28.32;31.03
26563;BME280;14217;50.986;5.826;2022-08-05T23:00:24;101880.19;;;28.36;30.89
26563;BME280;14217;50.986;5.826;2022-08-05T23:05:27;101886.75;;;28.32;31.05
26563;BME280;14217;50.986;5.826;2022-08-05T23:10:36;101885.34;;;28.39;31.00
26563;BME280;14217;50.986;5.826;2022-08-05T23:15:39;101893.94;;;28.31;30.94
26563;BME280;14217;50.986;5.826;2022-08-05T23:20:43;101897.53;;;28.32;31.20
26563;BME280;14217;50.986;5.826;2022-08-05T23:25:45;101905.81;;;28.29;31.15
26563;BME280;14217;50.986;5.826;2022-08-05T23:30:56;101911.09;;;28.30;31.12
26563;BME280;14217;50.986;5.826;2022-08-05T23:36:17;101909.50;;;28.28;31.01
26563;BME280;14217;50.986;5.826;2022-08-05T23:41:19;101902.94;;;28.32;30.90
26563;BME280;14217;50.986;5.826;2022-08-05T23:46:22;101921.13;;;28.28;30.97
26563;BME280;14217;50.986;5.826;2022-08-05T23:51:24;101930.63;;;28.34;30.81
26563;BME280;14217;50.986;5.826;2022-08-05T23:56:26;101924.69;;;28.29;30.97
